Time;durP1;ratioP1;P1;durP2;ratioP2;P2;SDS_P1;SDS_P2;PMS_P1;PMS_P2;Temp;Humidity;BMP_temperature;BMP_pressure;BME280_temperature;BME280_humidity;BME280_pressure;Samples;Min_cycle;Max_cycle;Signal;HPM_P1;HPM_P2
2021/12/13 00:00:17;;;;;;;10.10;4.35;;;;;;;8.97;100.00;102478.59;5034755;28;20063;-72
2021/12/13 00:02:53;;;;;;;9.50;3.78;;;;;;;9.02;100.00;102471.50;5035731;28;20136;-73
2021/12/13 00:05:28;;;;;;;13.07;4.30;;;;;;;9.04;100.00;102471.53;5034835;28;20129;-73
2021/12/13 00:08:00;;;;;;;7.93;3.80;;;;;;;9.04;100.00;102472.44;5036872;28;20044;-73
2021/12/13 00:10:36;;;;;;;10.00;3.40;;;;;;;9.03;100.00;102477.75;5033971;28;20049;-73
2021/12/13 00:13:10;;;;;;;12.75;3.92;;;;;;;9.04;100.00;102482.16;5031328;28;20111;-73
2021/12/13 00:15:46;;;;;;;8.52;3.55;;;;;;;9.04;100.00;102487.50;5033249;28;20040;-73
2021/12/13 00:18:19;;;;;;;6.45;2.97;;;;;;;9.06;100.00;102475.06;5035135;28;20052;-73
2021/12/13 00:20:54;;;;;;;7.50;3.53;;;;;;;9.02;100.00;102481.28;5036718;28;20048;-73
2021/12/13 00:23:27;;;;;;;9.30;3.17;;;;;;;8.99;100.00;102476.88;5032957;28;20081;-73
2021/12/13 00:25:59;;;;;;;7.07;3.08;;;;;;;9.00;100.00;102475.97;5035338;28;20047;-73
2021/12/13 00:28:32;;;;;;;6.45;2.97;;;;;;;8.97;100.00;102478.59;5033742;28;20057;-73
2021/12/13 00:31:15;;;;;;;7.35;2.95;;;;;;;8.97;100.00;102478.59;5034183;28;20136;-73
2021/12/13 00:33:56;;;;;;;5.72;2.90;;;;;;;8.93;100.00;102480.38;5036364;28;20403;-69
2021/12/13 00:36:38;;;;;;;9.95;3.30;;;;;;;8.96;100.00;102476.84;5035299;28;20532;-69
2021/12/13 00:39:16;;;;;;;6.88;2.95;;;;;;;8.87;100.00;102474.16;5035777;28;20057;-73
2021/12/13 00:41:46;;;;;;;7.85;2.88;;;;;;;8.87;100.00;102475.06;5037479;28;20056;-73
2021/12/13 00:44:17;;;;;;;6.53;2.50;;;;;;;8.89;100.00;102481.28;5034758;28;20053;-74
2021/12/13 00:46:48;;;;;;;7.68;2.90;;;;;;;8.92;100.00;102483.03;5034571;28;20967;-73
2021/12/13 00:49:18;;;;;;;6.30;3.03;;;;;;;8.90;100.00;102487.50;5032718;28;20055;-74
2021/12/13 00:51:50;;;;;;;8.02;3.30;;;;;;;8.94;100.00;102487.50;5035556;28;20166;-73
2021/12/13 00:54:24;;;;;;;8.63;2.80;;;;;;;8.92;100.00;102483.03;5027730;28;20601;-73
2021/12/13 00:57:13;;;;;;;7.32;3.10;;;;;;;8.87;100.00;102480.41;5035833;28;20132;-73
2021/12/13 00:59:43;;;;;;;5.38;3.05;;;;;;;8.88;100.00;102486.59;5032974;28;20053;-73
2021/12/13 01:02:15;;;;;;;8.27;3.25;;;;;;;8.85;100.00;102482.16;5033032;28;20156;-74
2021/12/13 01:05:00;;;;;;;6.80;2.95;;;;;;;8.86;100.00;102483.06;5031900;28;20040;-73
2021/12/13 01:08:04;;;;;;;9.57;3.42;;;;;;;8.88;100.00;102498.13;5036338;28;20067;-73
2021/12/13 01:11:05;;;;;;;8.18;2.92;;;;;;;8.86;100.00;102496.38;5035217;28;20458;-73
2021/12/13 01:13:41;;;;;;;6.38;2.88;;;;;;;8.88;100.00;102503.44;5032260;28;20619;-73
2021/12/13 01:16:20;;;;;;;7.65;3.40;;;;;;;8.88;100.00;102499.91;5034196;28;20159;-73
2021/12/13 01:19:13;;;;;;;6.78;3.55;;;;;;;8.84;100.00;102498.16;5036323;28;20558;-69
2021/12/13 01:22:19;;;;;;;8.98;3.20;;;;;;;8.83;100.00;102491.03;5030838;28;20568;-69
2021/12/13 01:27:44;;;;;;;6.28;3.00;;;;;;;8.81;100.00;102503.47;5025104;28;20049;-69
2021/12/13 01:30:25;;;;;;;10.48;3.83;;;;;;;8.81;100.00;102499.00;5034772;28;20076;-68
2021/12/13 01:33:03;;;;;;;7.97;3.47;;;;;;;8.81;100.00;102501.69;5032868;28;20076;-68
2021/12/13 01:35:44;;;;;;;5.88;3.20;;;;;;;8.79;100.00;102500.78;5032696;28;20140;-68
2021/12/13 01:38:31;;;;;;;6.50;3.22;;;;;;;8.80;100.00;102505.22;5031872;28;20052;-69
2021/12/13 01:41:16;;;;;;;9.52;3.50;;;;;;;8.80;100.00;102507.88;5033853;28;20236;-69
2021/12/13 01:43:50;;;;;;;8.73;2.90;;;;;;;8.72;100.00;102502.56;5030626;28;20056;-69
2021/12/13 01:46:36;;;;;;;8.50;3.33;;;;;;;8.78;100.00;102510.56;5034084;28;20083;-69
2021/12/13 01:49:16;;;;;;;6.00;3.30;;;;;;;8.75;100.00;102507.88;5029986;28;20499;-70
2021/12/13 01:52:02;;;;;;;7.75;4.13;;;;;;;8.75;100.00;102507.88;5034285;28;20131;-71
2021/12/13 01:54:31;;;;;;;8.43;3.95;;;;;;;8.72;100.00;102514.97;5025822;28;20212;-70
2021/12/13 01:57:22;;;;;;;12.30;4.88;;;;;;;8.71;100.00;102519.38;5031317;28;20040;-69
2021/12/13 02:00:08;;;;;;;10.40;5.28;;;;;;;8.66;100.00;102514.94;5015485;28;20059;-75
2021/12/13 02:02:41;;;;;;;12.35;5.80;;;;;;;8.63;100.00;102515.81;5034271;28;20277;-74
2021/12/13 02:05:13;;;;;;;15.85;6.28;;;;;;;8.64;100.00;102512.28;5033247;28;20056;-74
2021/12/13 02:07:46;;;;;;;14.30;6.53;;;;;;;8.60;100.00;102513.16;5033654;28;20119;-74
2021/12/13 02:10:31;;;;;;;15.88;7.40;;;;;;;8.58;100.00;102507.84;5031479;28;20631;-70
2021/12/13 02:13:10;;;;;;;16.10;7.72;;;;;;;8.58;100.00;102513.16;5029306;28;20200;-69
2021/12/13 02:18:38;;;;;;;;;;;;;;;8.56;100.00;102511.38;5033107;28;20171;-73
2021/12/13 02:21:11;;;;;;;16.60;7.65;;;;;;;8.60;100.00;102511.38;5034558;28;20019;-70
2021/12/13 02:23:47;;;;;;;18.73;8.63;;;;;;;8.59;100.00;102506.94;5034408;28;20059;-70
2021/12/13 02:26:16;;;;;;;19.50;8.90;;;;;;;8.57;100.00;102510.50;5033560;28;20049;-70
2021/12/13 02:28:48;;;;;;;18.00;9.55;;;;;;;8.57;100.00;102516.69;5032645;28;20126;-70
2021/12/13 02:31:20;;;;;;;19.80;9.07;;;;;;;8.56;100.00;102522.00;5035496;28;20053;-70
2021/12/13 02:33:52;;;;;;;18.45;8.75;;;;;;;8.52;100.00;102521.13;5032456;28;20565;-70
2021/12/13 02:36:23;;;;;;;21.35;9.45;;;;;;;8.52;100.00;102526.44;5033574;28;20052;-70
2021/12/13 02:38:56;;;;;;;18.73;9.05;;;;;;;8.56;100.00;102530.91;5031496;28;20124;-70
2021/12/13 02:41:27;;;;;;;21.55;9.30;;;;;;;8.55;100.00;102531.78;5033927;28;20060;-73
2021/12/13 02:43:58;;;;;;;19.88;8.98;;;;;;;8.60;100.00;102531.81;5029743;28;20147;-74
2021/12/13 02:46:26;;;;;;;16.05;8.88;;;;;;;8.57;100.00;102527.34;5035844;28;20048;-73
2021/12/13 02:48:58;;;;;;;17.88;9.18;;;;;;;8.55;100.00;102526.47;5033689;28;20144;-74
2021/12/13 02:51:29;;;;;;;17.60;9.98;;;;;;;8.57;100.00;102518.47;5044240;28;20127;-72
2021/12/13 02:54:02;;;;;;;18.27;10.70;;;;;;;8.59;100.00;102519.38;5048704;28;20106;-70
2021/12/13 02:56:34;;;;;;;19.33;11.25;;;;;;;8.57;100.00;102511.38;5054999;28;20294;-70
2021/12/13 02:59:04;;;;;;;21.20;9.70;;;;;;;8.62;100.00;102510.53;5050406;28;20072;-69
2021/12/13 03:01:39;;;;;;;18.70;10.02;;;;;;;8.59;100.00;102520.25;5053004;28;20126;-70
2021/12/13 03:04:12;;;;;;;17.35;9.77;;;;;;;8.59;100.00;102512.25;5053813;28;20493;-70
2021/12/13 03:06:44;;;;;;;19.42;11.32;;;;;;;8.61;100.00;102525.56;5053526;28;20240;-71
2021/12/13 03:09:17;;;;;;;20.90;11.57;;;;;;;8.63;100.00;102517.59;5053048;28;20493;-69
2021/12/13 03:11:46;;;;;;;19.27;11.30;;;;;;;8.60;100.00;102508.72;5047441;28;20420;-69
2021/12/13 03:14:17;;;;;;;23.35;11.60;;;;;;;8.59;100.00;102511.38;5057411;28;20089;-69
2021/12/13 03:16:52;;;;;;;18.02;10.00;;;;;;;8.60;100.00;102511.38;5055746;28;20048;-69
2021/12/13 03:19:35;;;;;;;23.65;11.52;;;;;;;8.60;100.00;102503.41;5059087;28;20073;-69
2021/12/13 03:22:18;;;;;;;19.30;10.68;;;;;;;8.59;100.00;102506.94;5053752;28;20789;-73
2021/12/13 03:25:09;;;;;;;20.38;10.82;;;;;;;8.58;100.00;102506.94;5055627;28;20076;-72
2021/12/13 03:27:53;;;;;;;21.63;10.45;;;;;;;8.57;100.00;102513.16;5057082;28;20140;-73
2021/12/13 03:30:23;;;;;;;22.90;11.35;;;;;;;8.59;100.00;102509.59;5055519;28;20143;-72
2021/12/13 03:32:55;;;;;;;16.35;10.10;;;;;;;8.55;100.00;102505.16;5052892;28;20075;-75
2021/12/13 03:35:27;;;;;;;15.18;9.85;;;;;;;8.57;100.00;102511.38;5056232;28;20048;-72
2021/12/13 03:37:59;;;;;;;19.55;9.90;;;;;;;8.55;100.00;102515.81;5054257;28;20315;-74
2021/12/13 03:40:31;;;;;;;18.60;9.77;;;;;;;8.60;100.00;102510.50;5053331;28;20121;-73
2021/12/13 03:43:04;;;;;;;19.05;10.20;;;;;;;8.62;100.00;102506.06;5055355;28;20048;-73
2021/12/13 03:45:39;;;;;;;15.13;9.70;;;;;;;8.60;100.00;102500.75;5054052;28;20148;-73
2021/12/13 03:48:10;;;;;;;21.35;10.40;;;;;;;8.57;100.00;102498.06;5053675;28;20048;-73
2021/12/13 03:50:41;;;;;;;17.42;9.52;;;;;;;8.67;100.00;102503.44;5058634;28;20595;-73
2021/12/13 03:53:13;;;;;;;17.35;9.30;;;;;;;8.65;100.00;102502.50;5052318;28;20049;-73
2021/12/13 03:55:46;;;;;;;19.27;10.82;;;;;;;8.64;100.00;102504.31;5054105;28;20052;-73
2021/12/13 03:58:17;;;;;;;13.65;9.13;;;;;;;8.59;100.00;102503.41;5057480;28;20048;-73
2021/12/13 04:00:52;;;;;;;22.83;9.20;;;;;;;8.58;100.00;102505.19;5053498;28;20181;-73
2021/12/13 04:03:23;;;;;;;16.42;8.73;;;;;;;8.59;100.00;102500.75;5055597;28;20056;-73
2021/12/13 04:05:51;;;;;;;14.95;8.40;;;;;;;8.58;100.00;102510.50;5056695;28;20403;-73
2021/12/13 04:08:21;;;;;;;14.90;8.82;;;;;;;8.56;100.00;102498.06;5053439;28;20397;-73
2021/12/13 04:10:52;;;;;;;16.17;9.30;;;;;;;8.56;100.00;102493.66;5054521;28;20500;-73
2021/12/13 04:13:24;;;;;;;16.95;8.82;;;;;;;8.55;100.00;102497.19;5051893;28;20467;-73
2021/12/13 04:16:03;;;;;;;14.23;8.15;;;;;;;8.51;100.00;102495.41;5058272;28;20048;-73
2021/12/13 04:19:06;;;;;;;14.15;7.85;;;;;;;8.51;100.00;102495.41;5053539;28;20077;-73
2021/12/13 04:21:44;;;;;;;15.63;8.27;;;;;;;8.54;100.00;102497.19;5055593;28;20485;-73
2021/12/13 04:24:16;;;;;;;13.45;7.90;;;;;;;8.56;100.00;102495.41;5058499;28;20052;-75
2021/12/13 04:26:49;;;;;;;15.75;9.45;;;;;;;8.52;100.00;102505.16;5054881;28;20514;-73
2021/12/13 04:29:21;;;;;;;15.85;9.13;;;;;;;8.55;100.00;102507.84;5054916;28;20543;-74
2021/12/13 04:31:51;;;;;;;15.65;7.93;;;;;;;8.54;100.00;102502.50;5055794;28;20205;-73
2021/12/13 04:34:22;;;;;;;14.65;8.27;;;;;;;8.51;100.00;102491.84;5052852;28;20056;-73
2021/12/13 04:37:16;;;;;;;14.82;8.27;;;;;;;8.51;100.00;102506.06;5056582;28;20512;-73
2021/12/13 04:39:46;;;;;;;14.85;7.65;;;;;;;8.48;100.00;102508.69;5054536;28;20052;-73
2021/12/13 04:42:18;;;;;;;12.25;7.60;;;;;;;8.48;100.00;102506.03;5057022;28;20090;-73
2021/12/13 04:44:50;;;;;;;14.30;7.53;;;;;;;8.49;100.00;102506.91;5052473;28;20121;-73
2021/12/13 04:47:21;;;;;;;13.75;8.13;;;;;;;8.46;100.00;102505.13;5055761;28;20072;-73
2021/12/13 04:49:57;;;;;;;16.13;7.53;;;;;;;8.51;100.00;102511.38;5055337;28;20071;-73
2021/12/13 04:52:26;;;;;;;14.82;8.00;;;;;;;8.49;100.00;102502.47;5054830;28;20056;-73
2021/12/13 04:54:56;;;;;;;14.45;7.72;;;;;;;8.56;100.00;102492.75;5057384;28;20552;-73
2021/12/13 04:57:25;;;;;;;14.13;7.22;;;;;;;8.55;100.00;102497.19;5055704;28;20056;-73
2021/12/13 04:59:57;;;;;;;11.93;6.82;;;;;;;8.56;100.00;102501.63;5055597;28;20472;-74
2021/12/13 05:02:26;;;;;;;12.05;7.22;;;;;;;8.64;100.00;102506.97;5055795;28;20048;-75
2021/12/13 05:04:56;;;;;;;17.38;8.68;;;;;;;8.59;100.00;102506.06;5054237;28;20422;-75
2021/12/13 05:07:29;;;;;;;16.05;7.88;;;;;;;8.59;100.00;102517.59;5054304;28;20332;-75
2021/12/13 05:09:59;;;;;;;12.30;7.10;;;;;;;8.53;100.00;102517.59;5054504;28;20123;-73
2021/12/13 05:12:29;;;;;;;14.95;7.68;;;;;;;8.56;100.00;102512.28;5050443;28;20518;-76
2021/12/13 05:15:00;;;;;;;15.23;8.00;;;;;;;8.55;100.00;102521.13;5056752;28;20041;-73
2021/12/13 05:17:36;;;;;;;15.75;7.60;;;;;;;8.54;100.00;102518.47;5054134;28;20059;-73
2021/12/13 05:20:11;;;;;;;13.82;7.93;;;;;;;8.56;100.00;102522.00;5052263;28;20475;-73
2021/12/13 05:22:47;;;;;;;16.23;7.95;;;;;;;8.53;100.00;102525.56;5055648;28;21402;-74
2021/12/13 05:25:23;;;;;;;14.63;7.80;;;;;;;8.51;100.00;102523.78;5057316;28;20136;-73
2021/12/13 05:28:00;;;;;;;18.20;8.05;;;;;;;8.51;100.00;102522.03;5053844;28;20109;-76
2021/12/13 05:30:30;;;;;;;14.57;7.40;;;;;;;8.47;100.00;102519.34;5053797;28;20041;-75
2021/12/13 05:33:01;;;;;;;12.52;7.65;;;;;;;8.48;100.00;102519.34;5056245;28;20055;-76
2021/12/13 05:35:33;;;;;;;13.88;7.28;;;;;;;8.43;100.00;102515.78;5053786;28;20064;-75
2021/12/13 05:38:05;;;;;;;14.25;8.10;;;;;;;8.50;100.00;102516.69;5053323;28;20049;-71
2021/12/13 05:40:38;;;;;;;14.43;7.72;;;;;;;8.46;100.00;102515.75;5055269;28;20215;-75
2021/12/13 05:43:20;;;;;;;14.80;7.68;;;;;;;8.45;100.00;102507.81;5054078;28;20060;-75
2021/12/13 05:45:53;;;;;;;15.40;7.65;;;;;;;8.39;100.00;102517.50;5052827;28;20139;-75
2021/12/13 05:48:24;;;;;;;14.35;8.02;;;;;;;8.46;100.00;102517.53;5055748;28;20183;-76
2021/12/13 05:50:55;;;;;;;16.85;9.07;;;;;;;8.46;100.00;102510.44;5053795;28;20174;-72
2021/12/13 05:53:26;;;;;;;15.82;8.45;;;;;;;8.48;100.00;102518.44;5052159;28;20052;-71
2021/12/13 05:56:04;;;;;;;13.27;8.00;;;;;;;8.46;100.00;102517.53;5050981;28;20098;-71
2021/12/13 05:58:43;;;;;;;13.18;7.68;;;;;;;8.45;100.00;102519.31;5054031;28;20519;-71
2021/12/13 06:01:17;;;;;;;15.07;8.13;;;;;;;8.41;100.00;102517.47;5049709;28;20044;-71
2021/12/13 06:03:49;;;;;;;;;;;;;;;8.43;100.00;102514.88;5054940;28;20189;-71
2021/12/13 06:06:23;;;;;;;15.77;8.77;;;;;;;8.44;100.00;102514.88;5055128;28;20234;-71
2021/12/13 06:08:56;;;;;;;14.03;8.13;;;;;;;8.47;100.00;102517.56;5054659;28;20138;-74
2021/12/13 06:11:32;;;;;;;16.10;8.38;;;;;;;8.52;100.00;102521.13;5051686;28;20052;-75
2021/12/13 06:14:16;;;;;;;13.52;7.63;;;;;;;8.49;100.00;102533.53;5051552;28;20067;-75
2021/12/13 06:17:03;;;;;;;17.50;8.45;;;;;;;8.49;100.00;102523.75;5054336;28;20127;-75
2021/12/13 06:19:34;;;;;;;17.48;8.57;;;;;;;8.49;100.00;102525.53;5054282;28;20102;-75
2021/12/13 06:22:12;;;;;;;17.77;8.90;;;;;;;8.49;100.00;102530.88;5052646;28;20508;-75
2021/12/13 06:24:42;;;;;;;19.08;10.18;;;;;;;8.47;100.00;102530.84;5053252;28;20070;-75
2021/12/13 06:27:16;;;;;;;17.05;9.93;;;;;;;8.44;100.00;102530.84;5053164;28;20044;-75
2021/12/13 06:29:54;;;;;;;20.17;10.13;;;;;;;8.54;100.00;102529.09;5052591;28;20094;-74
2021/12/13 06:32:31;;;;;;;17.80;9.70;;;;;;;8.49;100.00;102530.88;5053126;28;20543;-74
2021/12/13 06:35:02;;;;;;;21.58;10.93;;;;;;;8.63;100.00;102520.25;5054296;28;20060;-71
2021/12/13 06:37:36;;;;;;;24.05;12.38;;;;;;;8.60;100.00;102530.00;5034544;28;20099;-71
2021/12/13 06:40:15;;;;;;;24.55;12.27;;;;;;;8.54;100.00;102527.31;5051852;28;20513;-71
2021/12/13 06:42:43;;;;;;;23.20;12.27;;;;;;;8.53;100.00;102529.97;5055351;28;20136;-71
2021/12/13 06:45:26;;;;;;;24.38;12.88;;;;;;;8.52;100.00;102526.44;5054300;28;20090;-71
2021/12/13 06:47:56;;;;;;;21.13;11.27;;;;;;;8.47;100.00;102527.31;5049746;28;20608;-71
2021/12/13 06:50:28;;;;;;;23.70;11.63;;;;;;;8.48;100.00;102529.97;5059563;28;20141;-71
2021/12/13 06:53:14;;;;;;;24.33;13.25;;;;;;;8.48;100.00;102532.66;5055863;28;20602;-71
2021/12/13 06:55:44;;;;;;;24.10;12.10;;;;;;;8.49;100.00;102542.38;5040336;28;20481;-72
2021/12/13 06:58:30;;;;;;;25.33;13.05;;;;;;;8.50;100.00;102537.97;5061103;28;20052;-75
2021/12/13 07:01:06;;;;;;;26.33;12.63;;;;;;;8.50;100.00;102536.19;5057337;28;20079;-75
2021/12/13 07:03:34;;;;;;;24.35;13.25;;;;;;;8.50;100.00;102541.50;5061617;28;20225;-76
2021/12/13 07:06:05;;;;;;;24.90;11.98;;;;;;;8.47;100.00;102554.78;5057200;28;20053;-75
2021/12/13 07:08:36;;;;;;;26.48;12.88;;;;;;;8.47;100.00;102549.47;5062541;28;20175;-75
2021/12/13 07:11:07;;;;;;;28.63;15.02;;;;;;;8.48;100.00;102558.34;5058511;28;20503;-76
2021/12/13 07:13:41;;;;;;;25.33;12.63;;;;;;;8.46;100.00;102560.09;5058688;28;20163;-75
2021/12/13 07:16:15;;;;;;;24.05;12.02;;;;;;;8.49;100.00;102561.00;5060951;28;20048;-74
2021/12/13 07:18:47;;;;;;;29.00;12.43;;;;;;;8.49;100.00;102563.66;5056007;28;20040;-74
2021/12/13 07:21:19;;;;;;;28.40;13.40;;;;;;;8.52;100.00;102565.47;5055803;28;20071;-73
2021/12/13 07:23:55;;;;;;;29.75;13.27;;;;;;;8.51;100.00;102567.25;5059275;28;20125;-74
2021/12/13 07:26:32;;;;;;;27.77;13.52;;;;;;;8.47;100.00;102560.13;5061639;28;20044;-75
2021/12/13 07:29:01;;;;;;;27.75;13.32;;;;;;;8.46;100.00;102566.31;5057507;28;20052;-73
2021/12/13 07:31:30;;;;;;;26.33;13.20;;;;;;;8.48;100.00;102569.88;5060772;28;20055;-74
2021/12/13 07:34:10;;;;;;;25.10;13.18;;;;;;;8.53;100.00;102567.22;5056452;28;20408;-74
2021/12/13 07:36:39;;;;;;;26.58;14.52;;;;;;;8.53;100.00;102568.13;5061110;28;20071;-75
2021/12/13 07:39:14;;;;;;;31.40;13.15;;;;;;;8.52;100.00;102568.13;5056802;28;20052;-74
2021/12/13 07:41:50;;;;;;;27.83;12.90;;;;;;;8.48;100.00;102587.59;5059389;28;20810;-74
2021/12/13 07:44:40;;;;;;;30.38;13.27;;;;;;;8.48;100.00;102588.50;5055438;28;20124;-74
2021/12/13 07:47:13;;;;;;;29.17;12.88;;;;;;;8.50;100.00;102592.06;5059733;28;20321;-76
2021/12/13 07:49:44;;;;;;;22.58;12.88;;;;;;;8.47;100.00;102592.03;5059733;28;20437;-76
2021/12/13 07:52:31;;;;;;;29.40;13.23;;;;;;;8.51;100.00;102591.19;5053501;28;20159;-71
2021/12/13 07:55:25;;;;;;;24.17;13.07;;;;;;;8.50;100.00;102589.41;5016511;28;20589;-72
2021/12/13 07:58:02;;;;;;;28.20;14.27;;;;;;;8.53;100.00;102588.50;5042416;28;20492;-72
2021/12/13 08:00:44;;;;;;;25.23;11.82;;;;;;;8.49;100.00;102587.63;5056150;28;20052;-72
2021/12/13 08:03:27;;;;;;;20.33;11.32;;;;;;;8.45;100.00;102591.16;5053984;28;20071;-72
2021/12/13 08:06:13;;;;;;;25.23;12.32;;;;;;;8.44;100.00;102589.38;5053692;28;20405;-71
2021/12/13 08:12:09;;;;;;;25.42;11.88;;;;;;;8.44;100.00;102596.47;5052942;28;20044;-72
2021/12/13 08:14:40;;;;;;;30.52;12.68;;;;;;;8.46;100.00;102594.69;5054663;28;20067;-74
2021/12/13 08:17:12;;;;;;;30.38;13.38;;;;;;;8.43;100.00;102587.59;5051579;28;20102;-74
2021/12/13 08:19:42;;;;;;;22.50;11.25;;;;;;;8.41;100.00;102594.63;5058402;28;20056;-73
2021/12/13 08:22:28;;;;;;;26.75;12.88;;;;;;;8.46;100.00;102594.69;5042613;28;20056;-73
2021/12/13 08:25:00;;;;;;;26.85;12.02;;;;;;;8.43;100.00;102602.66;5051145;28;20059;-73
2021/12/13 08:27:41;;;;;;;23.10;12.02;;;;;;;8.47;100.00;102596.50;5053584;28;20210;-71
2021/12/13 08:30:24;;;;;;;25.60;11.55;;;;;;;8.41;100.00;102590.22;5055322;28;20074;-72
2021/12/13 08:33:06;;;;;;;25.63;13.20;;;;;;;8.43;100.00;102584.94;5036009;28;21686;-71
2021/12/13 08:39:07;;;;;;;25.15;12.20;;;;;;;8.43;100.00;102592.94;5037275;28;20052;-72
2021/12/13 08:41:49;;;;;;;29.80;14.93;;;;;;;8.46;100.00;102595.56;5044055;28;20044;-74
2021/12/13 08:44:22;;;;;;;29.05;13.07;;;;;;;8.49;100.00;102590.28;5053056;28;20048;-75
2021/12/13 08:46:58;;;;;;;26.50;13.32;;;;;;;8.48;100.00;102609.78;5054636;28;20062;-74
2021/12/13 08:49:34;;;;;;;29.52;13.52;;;;;;;8.51;100.00;102599.19;5053085;28;20118;-74
2021/12/13 08:52:37;;;;;;;31.75;14.48;;;;;;;8.54;100.00;102603.59;5054754;28;20144;-71
2021/12/13 08:58:29;;;;;;;23.73;13.43;;;;;;;8.53;100.00;102615.13;5052277;28;20748;-74
2021/12/13 09:01:04;;;;;;;29.77;13.68;;;;;;;8.54;100.00;102620.44;5034346;28;20056;-74
2021/12/13 09:03:38;;;;;;;31.88;13.48;;;;;;;8.57;100.00;102620.47;5030869;28;20558;-76
2021/12/13 09:06:23;;;;;;;32.70;14.10;;;;;;;8.61;100.00;102634.69;5035874;28;20052;-75
2021/12/13 09:08:55;;;;;;;26.13;12.52;;;;;;;8.60;100.00;102633.78;5034878;28;20106;-75
2021/12/13 09:11:30;;;;;;;34.60;13.07;;;;;;;8.58;100.00;102638.22;5031153;28;20049;-75
2021/12/13 09:14:04;;;;;;;28.85;12.85;;;;;;;8.60;100.00;102640.91;5031256;28;20134;-75
2021/12/13 09:16:45;;;;;;;31.83;14.82;;;;;;;8.67;100.00;102660.44;5032059;28;20123;-75
2021/12/13 09:19:22;;;;;;;23.88;11.35;;;;;;;8.74;100.00;102656.94;5029673;28;20049;-75
2021/12/13 09:21:56;;;;;;;27.17;12.43;;;;;;;8.70;100.00;102666.69;5034446;28;20080;-75
2021/12/13 09:24:33;;;;;;;29.13;13.43;;;;;;;8.71;100.00;102667.56;5051301;28;20435;-75
2021/12/13 09:27:22;;;;;;;27.38;13.35;;;;;;;8.70;100.00;102674.66;5051901;28;20076;-76
2021/12/13 09:29:58;;;;;;;26.58;12.82;;;;;;;8.73;100.00;102679.97;5053678;28;20091;-75
2021/12/13 09:32:33;;;;;;;26.23;12.60;;;;;;;8.73;100.00;102684.41;5054168;28;20102;-75
2021/12/13 09:35:32;;;;;;;24.95;12.52;;;;;;;8.75;100.00;102688.88;5053577;28;20671;-75
2021/12/13 09:38:18;;;;;;;27.90;13.30;;;;;;;8.76;100.00;102684.44;5054823;28;20681;-75
2021/12/13 09:40:52;;;;;;;30.17;13.85;;;;;;;8.77;100.00;102688.88;5052927;28;20045;-75
2021/12/13 09:43:23;;;;;;;24.50;11.52;;;;;;;8.78;100.00;102693.31;5054169;28;20072;-75
2021/12/13 09:46:12;;;;;;;32.10;15.50;;;;;;;8.81;100.00;102693.34;5050675;28;21422;-72
2021/12/13 09:49:24;;;;;;;29.25;13.48;;;;;;;8.85;100.00;102697.78;5053270;28;20056;-73
2021/12/13 09:59:25;;;;;;;28.98;13.70;;;;;;;8.88;100.00;102695.13;5054418;28;20589;-72
2021/12/13 10:02:52;;;;;;;29.08;13.65;;;;;;;8.88;100.00;102688.94;5039758;28;20393;-73
2021/12/13 10:06:37;;;;;;;26.92;12.55;;;;;;;8.88;100.00;102687.16;5051295;28;20068;-72
2021/12/13 10:27:42;;;;;;;25.52;12.73;;;;;;;8.99;100.00;102692.53;5002527;28;20114;-72
2021/12/13 10:34:20;;;;;;;30.33;13.77;;;;;;;8.99;100.00;102689.88;5010271;28;20369;-74
2021/12/13 10:37:44;;;;;;;26.45;13.48;;;;;;;9.02;100.00;102686.31;5008913;28;20729;-73
2021/12/13 10:41:02;;;;;;;30.27;14.45;;;;;;;9.01;100.00;102700.50;5009366;28;20049;-72
2021/12/13 11:19:50;;;;;;;30.52;13.18;;;;;;;9.12;100.00;102680.13;4951446;28;20151;-73
2021/12/13 11:22:36;;;;;;;30.13;12.75;;;;;;;9.12;100.00;102674.81;4875681;29;20502;-77
2021/12/13 11:25:09;;;;;;;23.02;11.40;;;;;;;9.11;100.00;102676.59;4876053;29;21030;-76
2021/12/13 11:27:38;;;;;;;26.67;13.35;;;;;;;9.16;100.00;102669.50;4896536;29;20091;-77
2021/12/13 11:30:11;;;;;;;25.50;13.23;;;;;;;9.16;100.00;102671.28;4913481;29;20151;-77
2021/12/13 11:32:54;;;;;;;;;;;;;;;9.12;100.00;102665.03;4917644;29;20043;-77
2021/12/13 11:35:59;;;;;;;26.60;12.43;;;;;;;9.17;100.00;102667.72;4913452;29;20021;-77
2021/12/13 11:39:03;;;;;;;25.13;12.05;;;;;;;9.15;100.00;102672.16;4916693;29;20079;-76
2021/12/13 11:41:51;;;;;;;27.95;12.68;;;;;;;9.15;100.00;102682.81;4915430;29;20087;-77
2021/12/13 11:44:35;;;;;;;28.13;11.68;;;;;;;9.14;100.00;102678.38;4915925;29;20496;-76
2021/12/13 11:47:35;;;;;;;28.20;12.43;;;;;;;9.17;100.00;102673.06;4915388;29;20109;-76
2021/12/13 11:50:26;;;;;;;25.70;12.38;;;;;;;9.20;100.00;102673.06;4917450;29;20761;-77
2021/12/13 11:53:36;;;;;;;23.60;10.85;;;;;;;9.24;100.00;102688.16;4914147;29;20051;-77
2021/12/13 11:56:26;;;;;;;22.90;11.23;;;;;;;9.24;100.00;102680.16;4893639;29;20518;-77
2021/12/13 11:59:16;;;;;;;26.80;11.23;;;;;;;9.25;100.00;102675.75;4951227;28;20062;-77
2021/12/13 12:02:00;;;;;;;27.02;12.85;;;;;;;9.21;100.00;102668.63;4970340;28;20910;-76
2021/12/13 12:05:06;;;;;;;27.02;12.18;;;;;;;9.20;100.00;102673.06;4968770;28;20097;-75
2021/12/13 12:07:45;;;;;;;27.45;11.80;;;;;;;9.25;100.00;102673.09;4968286;28;20264;-76
2021/12/13 12:10:41;;;;;;;28.83;11.63;;;;;;;9.27;100.00;102665.97;4968779;28;20164;-73
2021/12/13 12:13:35;;;;;;;25.98;12.00;;;;;;;9.20;100.00;102665.06;5041778;28;20063;-74
2021/12/13 12:16:08;;;;;;;22.10;10.07;;;;;;;9.21;100.00;102663.28;5052972;28;20210;-74
2021/12/13 12:18:39;;;;;;;19.52;11.15;;;;;;;9.23;100.00;102667.75;5055453;28;20063;-74
2021/12/13 12:21:33;;;;;;;24.92;11.45;;;;;;;9.21;100.00;102668.63;5035852;28;20158;-74
2021/12/13 12:24:03;;;;;;;24.55;11.63;;;;;;;9.21;100.00;102671.28;5051335;28;20084;-75
2021/12/13 12:26:32;;;;;;;22.58;11.90;;;;;;;9.23;100.00;102670.41;5056724;28;20559;-74
2021/12/13 12:29:09;;;;;;;26.67;12.15;;;;;;;9.25;100.00;102667.75;5055425;28;20536;-75
2021/12/13 12:31:39;;;;;;;25.08;10.88;;;;;;;9.22;100.00;102662.41;5053454;28;20076;-74
2021/12/13 12:34:10;;;;;;;22.55;11.32;;;;;;;9.22;100.00;102663.31;5055764;28;20172;-74
2021/12/13 12:36:46;;;;;;;20.42;10.63;;;;;;;9.24;100.00;102657.97;5053401;28;20044;-74
2021/12/13 12:39:48;;;;;;;23.25;11.65;;;;;;;9.21;100.00;102671.28;5037473;28;20111;-74
2021/12/13 12:42:25;;;;;;;23.77;11.35;;;;;;;9.20;100.00;102673.06;5055823;28;20052;-74
2021/12/13 12:45:24;;;;;;;23.70;11.02;;;;;;;9.23;100.00;102667.75;5053344;28;20049;-74
2021/12/13 12:48:24;;;;;;;23.60;10.68;;;;;;;9.24;100.00;102677.50;5006943;28;20136;-74
2021/12/13 12:51:03;;;;;;;20.77;10.30;;;;;;;9.23;100.00;102664.19;5053336;28;20063;-74
2021/12/13 12:53:45;;;;;;;22.30;10.27;;;;;;;9.22;100.00;102673.06;5050799;28;20049;-74
2021/12/13 12:56:20;;;;;;;21.13;11.18;;;;;;;9.23;100.00;102664.19;5057107;28;20080;-74
2021/12/13 12:59:05;;;;;;;26.85;12.00;;;;;;;9.22;100.00;102667.75;5053005;28;20056;-74
2021/12/13 13:01:38;;;;;;;22.20;11.10;;;;;;;9.16;100.00;102663.31;5052477;28;20060;-74
2021/12/13 13:04:10;;;;;;;23.27;10.70;;;;;;;9.15;100.00;102661.50;5051946;28;20465;-74
2021/12/13 13:06:53;;;;;;;27.73;11.43;;;;;;;9.17;100.00;102665.06;5055482;28;20048;-73
2021/12/13 13:09:22;;;;;;;23.17;11.32;;;;;;;9.14;100.00;102667.72;5051857;28;20170;-74
2021/12/13 13:11:52;;;;;;;21.85;10.77;;;;;;;9.13;100.00;102668.63;5051420;28;20105;-74
2021/12/13 13:14:22;;;;;;;25.77;11.02;;;;;;;9.14;100.00;102667.72;5050717;28;20054;-74
2021/12/13 13:16:56;;;;;;;25.05;11.25;;;;;;;9.09;100.00;102666.81;5056285;28;20526;-74
2021/12/13 13:19:30;;;;;;;22.75;10.90;;;;;;;9.07;100.00;102658.81;5051214;28;20102;-74
2021/12/13 13:22:01;;;;;;;22.95;12.10;;;;;;;9.08;100.00;102659.72;5055608;28;20051;-75
2021/12/13 13:24:53;;;;;;;22.20;11.68;;;;;;;9.04;100.00;102658.81;5055069;28;20519;-74